sensor_id;sensor_type;location;lat;lon;timestamp;P1;durP1;ratioP1;P2;durP2;ratioP2
27839;SDS011;15207;42.182;24.308;2023-07-30T00:01:16;6.20;;;2.40;;
27839;SDS011;15207;42.182;24.308;2023-07-30T00:03:42;3.70;;;1.90;;
27839;SDS011;15207;42.182;24.308;2023-07-30T00:06:08;6.40;;;2.55;;
27839;SDS011;15207;42.182;24.308;2023-07-30T00:08:33;7.65;;;2.38;;
27839;SDS011;15207;42.182;24.308;2023-07-30T00:10:59;4.07;;;2.27;;
27839;SDS011;15207;42.182;24.308;2023-07-30T00:13:26;6.45;;;2.20;;
27839;SDS011;15207;42.182;24.308;2023-07-30T00:15:52;3.80;;;2.30;;
27839;SDS011;15207;42.182;24.308;2023-07-30T00:18:18;8.00;;;2.50;;
27839;SDS011;15207;42.182;24.308;2023-07-30T00:20:44;7.60;;;2.35;;
27839;SDS011;15207;42.182;24.308;2023-07-30T00:23:11;4.50;;;2.00;;
27839;SDS011;15207;42.182;24.308;2023-07-30T00:28:03;6.80;;;2.40;;
27839;SDS011;15207;42.182;24.308;2023-07-30T00:30:28;4.10;;;2.20;;
27839;SDS011;15207;42.182;24.308;2023-07-30T00:32:55;5.20;;;2.10;;
27839;SDS011;15207;42.182;24.308;2023-07-30T00:37:47;6.30;;;1.95;;
27839;SDS011;15207;42.182;24.308;2023-07-30T00:40:14;6.00;;;2.30;;
27839;SDS011;15207;42.182;24.308;2023-07-30T00:42:42;3.80;;;2.20;;
27839;SDS011;15207;42.182;24.308;2023-07-30T00:45:09;3.95;;;1.85;;
27839;SDS011;15207;42.182;24.308;2023-07-30T00:50:02;3.80;;;2.00;;
27839;SDS011;15207;42.182;24.308;2023-07-30T00:52:30;3.80;;;2.10;;
27839;SDS011;15207;42.182;24.308;2023-07-30T00:57:22;3.20;;;1.80;;
27839;SDS011;15207;42.182;24.308;2023-07-30T01:02:14;4.60;;;1.80;;
27839;SDS011;15207;42.182;24.308;2023-07-30T01:04:40;5.80;;;2.03;;
27839;SDS011;15207;42.182;24.308;2023-07-30T01:09:32;2.30;;;1.60;;
27839;SDS011;15207;42.182;24.308;2023-07-30T01:11:58;4.80;;;2.10;;
27839;SDS011;15207;42.182;24.308;2023-07-30T01:19:18;3.60;;;1.90;;
27839;SDS011;15207;42.182;24.308;2023-07-30T01:21:44;6.30;;;2.10;;
27839;SDS011;15207;42.182;24.308;2023-07-30T01:24:09;4.60;;;1.90;;
27839;SDS011;15207;42.182;24.308;2023-07-30T01:26:45;3.75;;;1.95;;
27839;SDS011;15207;42.182;24.308;2023-07-30T01:32:20;4.85;;;1.60;;
27839;SDS011;15207;42.182;24.308;2023-07-30T01:42:11;6.60;;;2.10;;
27839;SDS011;15207;42.182;24.308;2023-07-30T01:44:37;4.00;;;1.90;;
27839;SDS011;15207;42.182;24.308;2023-07-30T01:47:03;5.65;;;1.80;;
27839;SDS011;15207;42.182;24.308;2023-07-30T01:49:30;2.70;;;2.07;;
27839;SDS011;15207;42.182;24.308;2023-07-30T01:51:57;3.50;;;1.90;;
27839;SDS011;15207;42.182;24.308;2023-07-30T01:54:24;2.80;;;1.70;;
27839;SDS011;15207;42.182;24.308;2023-07-30T01:56:50;4.80;;;1.80;;
27839;SDS011;15207;42.182;24.308;2023-07-30T01:59:15;2.72;;;1.98;;
27839;SDS011;15207;42.182;24.308;2023-07-30T02:01:42;5.60;;;2.30;;
27839;SDS011;15207;42.182;24.308;2023-07-30T02:06:33;7.00;;;2.20;;
27839;SDS011;15207;42.182;24.308;2023-07-30T02:08:59;6.85;;;2.60;;
27839;SDS011;15207;42.182;24.308;2023-07-30T02:13:50;3.00;;;2.15;;
27839;SDS011;15207;42.182;24.308;2023-07-30T02:16:16;6.40;;;2.30;;
27839;SDS011;15207;42.182;24.308;2023-07-30T02:21:07;2.30;;;1.70;;
27839;SDS011;15207;42.182;24.308;2023-07-30T02:23:33;2.30;;;1.90;;
27839;SDS011;15207;42.182;24.308;2023-07-30T02:28:24;3.53;;;1.73;;
27839;SDS011;15207;42.182;24.308;2023-07-30T02:33:16;3.05;;;2.00;;
27839;SDS011;15207;42.182;24.308;2023-07-30T02:35:42;3.90;;;1.80;;
27839;SDS011;15207;42.182;24.308;2023-07-30T02:38:09;2.50;;;1.70;;
27839;SDS011;15207;42.182;24.308;2023-07-30T02:40:35;2.90;;;2.00;;
27839;SDS011;15207;42.182;24.308;2023-07-30T02:47:52;4.00;;;2.10;;
27839;SDS011;15207;42.182;24.308;2023-07-30T02:50:18;3.30;;;2.10;;
27839;SDS011;15207;42.182;24.308;2023-07-30T02:52:44;4.40;;;1.90;;
27839;SDS011;15207;42.182;24.308;2023-07-30T02:55:10;7.20;;;2.60;;
27839;SDS011;15207;42.182;24.308;2023-07-30T03:00:02;10.80;;;2.20;;
27839;SDS011;15207;42.182;24.308;2023-07-30T03:02:29;6.55;;;2.65;;
27839;SDS011;15207;42.182;24.308;2023-07-30T03:09:46;4.40;;;2.10;;
27839;SDS011;15207;42.182;24.308;2023-07-30T03:12:12;5.88;;;2.40;;
27839;SDS011;15207;42.182;24.308;2023-07-30T03:14:38;5.17;;;2.30;;
27839;SDS011;15207;42.182;24.308;2023-07-30T03:17:04;8.90;;;2.90;;
27839;SDS011;15207;42.182;24.308;2023-07-30T03:19:33;7.70;;;3.00;;
27839;SDS011;15207;42.182;24.308;2023-07-30T03:21:59;13.40;;;2.60;;
27839;SDS011;15207;42.182;24.308;2023-07-30T03:24:24;7.50;;;2.45;;
27839;SDS011;15207;42.182;24.308;2023-07-30T03:26:50;12.75;;;2.65;;
27839;SDS011;15207;42.182;24.308;2023-07-30T03:29:16;10.50;;;3.25;;
27839;SDS011;15207;42.182;24.308;2023-07-30T03:31:41;6.00;;;2.70;;
27839;SDS011;15207;42.182;24.308;2023-07-30T03:34:07;8.30;;;3.00;;
27839;SDS011;15207;42.182;24.308;2023-07-30T03:36:33;4.25;;;2.45;;
27839;SDS011;15207;42.182;24.308;2023-07-30T03:41:24;6.50;;;3.10;;
27839;SDS011;15207;42.182;24.308;2023-07-30T03:43:50;3.40;;;2.30;;
27839;SDS011;15207;42.182;24.308;2023-07-30T03:46:16;3.15;;;2.00;;
27839;SDS011;15207;42.182;24.308;2023-07-30T03:48:42;3.10;;;2.20;;
27839;SDS011;15207;42.182;24.308;2023-07-30T03:51:08;4.40;;;2.10;;
27839;SDS011;15207;42.182;24.308;2023-07-30T03:53:34;5.80;;;2.30;;
27839;SDS011;15207;42.182;24.308;2023-07-30T03:58:26;5.70;;;2.60;;
27839;SDS011;15207;42.182;24.308;2023-07-30T04:05:43;7.00;;;2.30;;
27839;SDS011;15207;42.182;24.308;2023-07-30T04:08:09;6.80;;;2.70;;
27839;SDS011;15207;42.182;24.308;2023-07-30T04:10:34;4.40;;;2.60;;
27839;SDS011;15207;42.182;24.308;2023-07-30T04:13:01;5.55;;;3.25;;
27839;SDS011;15207;42.182;24.308;2023-07-30T04:15:27;5.05;;;2.50;;
27839;SDS011;15207;42.182;24.308;2023-07-30T04:20:18;6.00;;;2.40;;
27839;SDS011;15207;42.182;24.308;2023-07-30T04:22:44;4.95;;;2.50;;
27839;SDS011;15207;42.182;24.308;2023-07-30T04:27:38;8.05;;;2.50;;
27839;SDS011;15207;42.182;24.308;2023-07-30T04:32:30;6.25;;;2.00;;
27839;SDS011;15207;42.182;24.308;2023-07-30T04:44:38;6.00;;;1.90;;
27839;SDS011;15207;42.182;24.308;2023-07-30T04:47:04;3.30;;;2.10;;
27839;SDS011;15207;42.182;24.308;2023-07-30T04:49:31;5.60;;;2.00;;
27839;SDS011;15207;42.182;24.308;2023-07-30T04:51:57;3.60;;;2.30;;
27839;SDS011;15207;42.182;24.308;2023-07-30T04:54:22;3.05;;;1.95;;
27839;SDS011;15207;42.182;24.308;2023-07-30T04:59:13;4.80;;;2.00;;
27839;SDS011;15207;42.182;24.308;2023-07-30T05:01:39;2.65;;;1.80;;
27839;SDS011;15207;42.182;24.308;2023-07-30T05:04:05;2.38;;;1.92;;
27839;SDS011;15207;42.182;24.308;2023-07-30T05:06:31;3.15;;;1.85;;
27839;SDS011;15207;42.182;24.308;2023-07-30T05:08:56;2.75;;;1.80;;
27839;SDS011;15207;42.182;24.308;2023-07-30T05:11:22;4.80;;;2.30;;
27839;SDS011;15207;42.182;24.308;2023-07-30T05:13:48;4.20;;;1.85;;
27839;SDS011;15207;42.182;24.308;2023-07-30T05:16:15;3.90;;;1.90;;
27839;SDS011;15207;42.182;24.308;2023-07-30T05:18:40;3.00;;;1.90;;
27839;SDS011;15207;42.182;24.308;2023-07-30T05:21:06;4.20;;;2.00;;
27839;SDS011;15207;42.182;24.308;2023-07-30T05:23:32;3.20;;;1.85;;
27839;SDS011;15207;42.182;24.308;2023-07-30T05:25:58;4.70;;;1.90;;
27839;SDS011;15207;42.182;24.308;2023-07-30T05:28:24;3.30;;;2.00;;
27839;SDS011;15207;42.182;24.308;2023-07-30T05:30:49;2.50;;;1.80;;
27839;SDS011;15207;42.182;24.308;2023-07-30T05:33:15;2.60;;;2.10;;
27839;SDS011;15207;42.182;24.308;2023-07-30T05:35:41;5.55;;;2.35;;
27839;SDS011;15207;42.182;24.308;2023-07-30T05:38:06;4.55;;;2.00;;
27839;SDS011;15207;42.182;24.308;2023-07-30T05:40:35;2.50;;;1.80;;
27839;SDS011;15207;42.182;24.308;2023-07-30T05:43:02;3.30;;;2.00;;
27839;SDS011;15207;42.182;24.308;2023-07-30T05:45:29;3.30;;;2.00;;
27839;SDS011;15207;42.182;24.308;2023-07-30T05:47:55;3.75;;;1.85;;
27839;SDS011;15207;42.182;24.308;2023-07-30T05:50:20;2.70;;;1.80;;
27839;SDS011;15207;42.182;24.308;2023-07-30T05:52:46;2.20;;;1.60;;
27839;SDS011;15207;42.182;24.308;2023-07-30T05:55:11;2.50;;;1.90;;
27839;SDS011;15207;42.182;24.308;2023-07-30T05:57:37;3.30;;;2.00;;
27839;SDS011;15207;42.182;24.308;2023-07-30T06:02:28;2.70;;;1.90;;
27839;SDS011;15207;42.182;24.308;2023-07-30T06:04:55;4.55;;;2.00;;
27839;SDS011;15207;42.182;24.308;2023-07-30T06:12:11;3.20;;;2.05;;
27839;SDS011;15207;42.182;24.308;2023-07-30T06:17:02;9.50;;;2.80;;
27839;SDS011;15207;42.182;24.308;2023-07-30T06:19:28;4.20;;;2.50;;
27839;SDS011;15207;42.182;24.308;2023-07-30T06:21:54;3.50;;;1.70;;
27839;SDS011;15207;42.182;24.308;2023-07-30T06:24:19;4.25;;;1.70;;
27839;SDS011;15207;42.182;24.308;2023-07-30T06:26:45;3.10;;;1.70;;
27839;SDS011;15207;42.182;24.308;2023-07-30T06:29:10;5.30;;;2.10;;
27839;SDS011;15207;42.182;24.308;2023-07-30T06:31:36;2.55;;;2.00;;
27839;SDS011;15207;42.182;24.308;2023-07-30T06:34:02;3.45;;;1.80;;
27839;SDS011;15207;42.182;24.308;2023-07-30T06:36:28;2.50;;;1.90;;
27839;SDS011;15207;42.182;24.308;2023-07-30T06:38:54;2.70;;;2.00;;
27839;SDS011;15207;42.182;24.308;2023-07-30T06:41:20;4.70;;;1.90;;
27839;SDS011;15207;42.182;24.308;2023-07-30T06:43:47;3.90;;;1.90;;
27839;SDS011;15207;42.182;24.308;2023-07-30T06:46:13;2.20;;;1.70;;
27839;SDS011;15207;42.182;24.308;2023-07-30T06:48:39;2.30;;;1.60;;
27839;SDS011;15207;42.182;24.308;2023-07-30T06:51:09;4.30;;;1.60;;
27839;SDS011;15207;42.182;24.308;2023-07-30T06:53:35;5.30;;;1.70;;
27839;SDS011;15207;42.182;24.308;2023-07-30T06:56:00;2.00;;;1.60;;
27839;SDS011;15207;42.182;24.308;2023-07-30T07:00:52;2.80;;;1.70;;
27839;SDS011;15207;42.182;24.308;2023-07-30T07:05:43;6.80;;;2.10;;
27839;SDS011;15207;42.182;24.308;2023-07-30T07:08:09;4.25;;;1.95;;
27839;SDS011;15207;42.182;24.308;2023-07-30T07:10:35;2.60;;;1.90;;
27839;SDS011;15207;42.182;24.308;2023-07-30T07:13:01;3.90;;;1.70;;
27839;SDS011;15207;42.182;24.308;2023-07-30T07:15:27;2.70;;;1.80;;
27839;SDS011;15207;42.182;24.308;2023-07-30T07:17:53;2.40;;;1.50;;
27839;SDS011;15207;42.182;24.308;2023-07-30T07:20:19;3.63;;;1.53;;
27839;SDS011;15207;42.182;24.308;2023-07-30T07:22:44;4.60;;;1.60;;
27839;SDS011;15207;42.182;24.308;2023-07-30T07:25:10;2.50;;;1.80;;
27839;SDS011;15207;42.182;24.308;2023-07-30T07:27:36;2.30;;;1.80;;
27839;SDS011;15207;42.182;24.308;2023-07-30T07:30:02;3.90;;;1.70;;
27839;SDS011;15207;42.182;24.308;2023-07-30T07:32:28;1.90;;;1.60;;
27839;SDS011;15207;42.182;24.308;2023-07-30T07:34:53;4.20;;;1.70;;
27839;SDS011;15207;42.182;24.308;2023-07-30T07:37:19;3.00;;;1.70;;
27839;SDS011;15207;42.182;24.308;2023-07-30T07:42:11;4.30;;;1.80;;
27839;SDS011;15207;42.182;24.308;2023-07-30T07:44:37;2.30;;;1.60;;
27839;SDS011;15207;42.182;24.308;2023-07-30T07:47:03;2.25;;;1.50;;
27839;SDS011;15207;42.182;24.308;2023-07-30T07:49:29;3.40;;;2.05;;
27839;SDS011;15207;42.182;24.308;2023-07-30T07:51:56;3.20;;;1.80;;
27839;SDS011;15207;42.182;24.308;2023-07-30T07:54:21;3.65;;;1.50;;
27839;SDS011;15207;42.182;24.308;2023-07-30T07:59:12;2.65;;;1.55;;
27839;SDS011;15207;42.182;24.308;2023-07-30T08:01:38;3.10;;;2.00;;
27839;SDS011;15207;42.182;24.308;2023-07-30T08:04:04;2.97;;;1.67;;
27839;SDS011;15207;42.182;24.308;2023-07-30T08:11:22;1.90;;;1.50;;
27839;SDS011;15207;42.182;24.308;2023-07-30T08:13:48;1.80;;;1.50;;
27839;SDS011;15207;42.182;24.308;2023-07-30T08:16:13;2.85;;;1.75;;
27839;SDS011;15207;42.182;24.308;2023-07-30T08:18:39;2.70;;;1.60;;
27839;SDS011;15207;42.182;24.308;2023-07-30T08:21:05;3.05;;;1.75;;
27839;SDS011;15207;42.182;24.308;2023-07-30T08:25:56;3.80;;;1.80;;
27839;SDS011;15207;42.182;24.308;2023-07-30T08:28:21;2.30;;;1.80;;
27839;SDS011;15207;42.182;24.308;2023-07-30T08:30:49;2.70;;;2.00;;
27839;SDS011;15207;42.182;24.308;2023-07-30T08:33:15;2.95;;;1.65;;
27839;SDS011;15207;42.182;24.308;2023-07-30T08:35:41;2.60;;;1.80;;
27839;SDS011;15207;42.182;24.308;2023-07-30T08:38:06;5.10;;;1.70;;
27839;SDS011;15207;42.182;24.308;2023-07-30T08:40:32;2.70;;;1.80;;
27839;SDS011;15207;42.182;24.308;2023-07-30T08:42:59;3.40;;;1.60;;
27839;SDS011;15207;42.182;24.308;2023-07-30T08:45:28;3.00;;;1.77;;
27839;SDS011;15207;42.182;24.308;2023-07-30T08:47:55;3.20;;;1.75;;
27839;SDS011;15207;42.182;24.308;2023-07-30T08:50:20;2.30;;;1.70;;
27839;SDS011;15207;42.182;24.308;2023-07-30T08:52:47;3.20;;;1.75;;
27839;SDS011;15207;42.182;24.308;2023-07-30T08:55:14;1.83;;;1.43;;
27839;SDS011;15207;42.182;24.308;2023-07-30T08:57:42;3.65;;;1.85;;
27839;SDS011;15207;42.182;24.308;2023-07-30T09:00:10;2.05;;;1.75;;
27839;SDS011;15207;42.182;24.308;2023-07-30T09:02:42;3.40;;;1.80;;
27839;SDS011;15207;42.182;24.308;2023-07-30T09:05:12;2.50;;;1.70;;
27839;SDS011;15207;42.182;24.308;2023-07-30T09:07:38;2.90;;;1.50;;
27839;SDS011;15207;42.182;24.308;2023-07-30T09:10:04;3.05;;;1.70;;
27839;SDS011;15207;42.182;24.308;2023-07-30T09:12:33;2.50;;;1.60;;
27839;SDS011;15207;42.182;24.308;2023-07-30T09:15:03;3.10;;;1.60;;
27839;SDS011;15207;42.182;24.308;2023-07-30T09:17:31;4.60;;;2.00;;
27839;SDS011;15207;42.182;24.308;2023-07-30T09:22:30;3.25;;;1.70;;
27839;SDS011;15207;42.182;24.308;2023-07-30T09:25:05;2.20;;;1.60;;
27839;SDS011;15207;42.182;24.308;2023-07-30T09:27:32;3.50;;;1.90;;
27839;SDS011;15207;42.182;24.308;2023-07-30T09:32:28;2.20;;;1.70;;
27839;SDS011;15207;42.182;24.308;2023-07-30T09:35:05;3.80;;;1.70;;
27839;SDS011;15207;42.182;24.308;2023-07-30T09:37:32;2.70;;;1.80;;
27839;SDS011;15207;42.182;24.308;2023-07-30T09:40:01;3.60;;;1.80;;
27839;SDS011;15207;42.182;24.308;2023-07-30T09:42:27;3.25;;;1.90;;
27839;SDS011;15207;42.182;24.308;2023-07-30T09:44:53;2.30;;;1.55;;
27839;SDS011;15207;42.182;24.308;2023-07-30T09:47:25;4.30;;;1.70;;
27839;SDS011;15207;42.182;24.308;2023-07-30T09:49:53;2.10;;;1.70;;
27839;SDS011;15207;42.182;24.308;2023-07-30T09:55:04;3.10;;;1.80;;
27839;SDS011;15207;42.182;24.308;2023-07-30T09:57:32;2.60;;;2.10;;
27839;SDS011;15207;42.182;24.308;2023-07-30T09:59:58;3.25;;;1.70;;
27839;SDS011;15207;42.182;24.308;2023-07-30T10:02:24;2.30;;;1.60;;
27839;SDS011;15207;42.182;24.308;2023-07-30T10:04:52;3.70;;;1.90;;
27839;SDS011;15207;42.182;24.308;2023-07-30T10:07:21;2.75;;;1.75;;
27839;SDS011;15207;42.182;24.308;2023-07-30T10:09:51;1.95;;;1.65;;
27839;SDS011;15207;42.182;24.308;2023-07-30T10:12:21;2.00;;;1.80;;
27839;SDS011;15207;42.182;24.308;2023-07-30T10:19:47;2.20;;;1.70;;
27839;SDS011;15207;42.182;24.308;2023-07-30T10:22:20;3.20;;;1.90;;
27839;SDS011;15207;42.182;24.308;2023-07-30T10:25:02;1.90;;;1.40;;
27839;SDS011;15207;42.182;24.308;2023-07-30T10:35:42;2.30;;;1.60;;
27839;SDS011;15207;42.182;24.308;2023-07-30T10:38:29;3.00;;;1.60;;
27839;SDS011;15207;42.182;24.308;2023-07-30T10:41:02;2.70;;;1.80;;
27839;SDS011;15207;42.182;24.308;2023-07-30T10:43:29;3.70;;;1.80;;
27839;SDS011;15207;42.182;24.308;2023-07-30T10:45:56;2.10;;;1.50;;
27839;SDS011;15207;42.182;24.308;2023-07-30T10:48:31;2.30;;;1.70;;
27839;SDS011;15207;42.182;24.308;2023-07-30T10:53:27;2.20;;;1.70;;
27839;SDS011;15207;42.182;24.308;2023-07-30T10:55:53;2.30;;;1.60;;
27839;SDS011;15207;42.182;24.308;2023-07-30T10:58:20;2.20;;;1.90;;
27839;SDS011;15207;42.182;24.308;2023-07-30T11:03:14;2.50;;;1.70;;
27839;SDS011;15207;42.182;24.308;2023-07-30T11:05:39;2.55;;;1.80;;
27839;SDS011;15207;42.182;24.308;2023-07-30T11:08:05;2.80;;;1.70;;
27839;SDS011;15207;42.182;24.308;2023-07-30T11:12:57;4.80;;;2.00;;
27839;SDS011;15207;42.182;24.308;2023-07-30T11:15:24;2.75;;;2.00;;
27839;SDS011;15207;42.182;24.308;2023-07-30T11:17:51;4.60;;;2.00;;
27839;SDS011;15207;42.182;24.308;2023-07-30T11:20:21;2.70;;;1.90;;
27839;SDS011;15207;42.182;24.308;2023-07-30T11:22:48;3.20;;;1.80;;
27839;SDS011;15207;42.182;24.308;2023-07-30T11:25:16;3.40;;;2.00;;
27839;SDS011;15207;42.182;24.308;2023-07-30T11:27:49;1.80;;;1.40;;
27839;SDS011;15207;42.182;24.308;2023-07-30T11:30:15;2.20;;;1.65;;
27839;SDS011;15207;42.182;24.308;2023-07-30T11:32:42;2.25;;;1.70;;
27839;SDS011;15207;42.182;24.308;2023-07-30T11:35:09;2.40;;;1.70;;
27839;SDS011;15207;42.182;24.308;2023-07-30T11:37:37;2.20;;;1.60;;
27839;SDS011;15207;42.182;24.308;2023-07-30T11:40:14;2.10;;;1.70;;
27839;SDS011;15207;42.182;24.308;2023-07-30T11:42:40;2.10;;;1.70;;
27839;SDS011;15207;42.182;24.308;2023-07-30T11:45:20;2.20;;;1.40;;
27839;SDS011;15207;42.182;24.308;2023-07-30T11:47:47;1.40;;;1.30;;
27839;SDS011;15207;42.182;24.308;2023-07-30T11:50:14;2.60;;;1.50;;
27839;SDS011;15207;42.182;24.308;2023-07-30T11:52:53;2.50;;;1.60;;
27839;SDS011;15207;42.182;24.308;2023-07-30T11:55:22;2.10;;;1.80;;
27839;SDS011;15207;42.182;24.308;2023-07-30T11:57:49;3.30;;;1.60;;
27839;SDS011;15207;42.182;24.308;2023-07-30T12:00:15;2.10;;;1.60;;
27839;SDS011;15207;42.182;24.308;2023-07-30T12:02:41;3.70;;;1.80;;
27839;SDS011;15207;42.182;24.308;2023-07-30T12:05:09;1.90;;;1.60;;
27839;SDS011;15207;42.182;24.308;2023-07-30T12:12:34;2.40;;;1.80;;
27839;SDS011;15207;42.182;24.308;2023-07-30T12:14:59;5.30;;;1.50;;
27839;SDS011;15207;42.182;24.308;2023-07-30T12:17:25;3.70;;;2.00;;
27839;SDS011;15207;42.182;24.308;2023-07-30T12:19:51;2.50;;;1.70;;
27839;SDS011;15207;42.182;24.308;2023-07-30T12:22:17;3.30;;;1.95;;
27839;SDS011;15207;42.182;24.308;2023-07-30T12:24:43;2.70;;;1.70;;
27839;SDS011;15207;42.182;24.308;2023-07-30T12:27:09;1.85;;;1.50;;
27839;SDS011;15207;42.182;24.308;2023-07-30T12:29:36;2.50;;;1.75;;
27839;SDS011;15207;42.182;24.308;2023-07-30T12:32:02;2.40;;;1.70;;
27839;SDS011;15207;42.182;24.308;2023-07-30T12:34:28;2.70;;;1.70;;
27839;SDS011;15207;42.182;24.308;2023-07-30T12:36:54;3.10;;;1.90;;
27839;SDS011;15207;42.182;24.308;2023-07-30T12:39:21;2.90;;;1.80;;
27839;SDS011;15207;42.182;24.308;2023-07-30T12:41:47;2.10;;;1.85;;
27839;SDS011;15207;42.182;24.308;2023-07-30T12:44:12;3.40;;;1.85;;
27839;SDS011;15207;42.182;24.308;2023-07-30T12:46:38;2.60;;;1.70;;
27839;SDS011;15207;42.182;24.308;2023-07-30T12:49:03;2.50;;;1.90;;
27839;SDS011;15207;42.182;24.308;2023-07-30T12:51:30;3.30;;;1.70;;
27839;SDS011;15207;42.182;24.308;2023-07-30T12:53:56;4.65;;;1.80;;
27839;SDS011;15207;42.182;24.308;2023-07-30T12:56:22;1.60;;;1.30;;
27839;SDS011;15207;42.182;24.308;2023-07-30T12:58:48;2.15;;;1.55;;
27839;SDS011;15207;42.182;24.308;2023-07-30T13:01:14;2.85;;;1.70;;
27839;SDS011;15207;42.182;24.308;2023-07-30T13:03:40;2.00;;;1.80;;
27839;SDS011;15207;42.182;24.308;2023-07-30T13:06:10;3.20;;;2.10;;
27839;SDS011;15207;42.182;24.308;2023-07-30T13:08:37;2.30;;;1.60;;
27839;SDS011;15207;42.182;24.308;2023-07-30T13:11:04;1.85;;;1.65;;
27839;SDS011;15207;42.182;24.308;2023-07-30T13:15:55;2.75;;;1.60;;
27839;SDS011;15207;42.182;24.308;2023-07-30T13:18:25;2.20;;;1.80;;
27839;SDS011;15207;42.182;24.308;2023-07-30T13:20:51;3.10;;;1.70;;
27839;SDS011;15207;42.182;24.308;2023-07-30T13:23:17;2.20;;;1.90;;
27839;SDS011;15207;42.182;24.308;2023-07-30T13:25:43;2.35;;;1.60;;
27839;SDS011;15207;42.182;24.308;2023-07-30T13:28:09;2.40;;;1.50;;
27839;SDS011;15207;42.182;24.308;2023-07-30T13:30:34;2.90;;;1.70;;
27839;SDS011;15207;42.182;24.308;2023-07-30T13:33:00;3.00;;;1.70;;
27839;SDS011;15207;42.182;24.308;2023-07-30T13:35:27;2.45;;;1.70;;
27839;SDS011;15207;42.182;24.308;2023-07-30T13:37:53;2.20;;;1.90;;
27839;SDS011;15207;42.182;24.308;2023-07-30T13:40:19;2.50;;;1.80;;
27839;SDS011;15207;42.182;24.308;2023-07-30T13:42:45;3.45;;;2.00;;
27839;SDS011;15207;42.182;24.308;2023-07-30T13:45:11;2.40;;;1.70;;
27839;SDS011;15207;42.182;24.308;2023-07-30T13:50:02;3.00;;;2.00;;
27839;SDS011;15207;42.182;24.308;2023-07-30T13:52:28;2.50;;;2.00;;
27839;SDS011;15207;42.182;24.308;2023-07-30T13:54:54;2.20;;;1.60;;
27839;SDS011;15207;42.182;24.308;2023-07-30T13:57:23;1.95;;;1.45;;
27839;SDS011;15207;42.182;24.308;2023-07-30T13:59:50;2.15;;;1.80;;
27839;SDS011;15207;42.182;24.308;2023-07-30T14:02:18;2.55;;;1.70;;
27839;SDS011;15207;42.182;24.308;2023-07-30T14:04:45;2.30;;;2.00;;
27839;SDS011;15207;42.182;24.308;2023-07-30T14:07:11;2.10;;;1.80;;
27839;SDS011;15207;42.182;24.308;2023-07-30T14:09:36;2.08;;;1.77;;
27839;SDS011;15207;42.182;24.308;2023-07-30T14:12:02;5.50;;;2.40;;
27839;SDS011;15207;42.182;24.308;2023-07-30T14:14:29;2.70;;;2.10;;
27839;SDS011;15207;42.182;24.308;2023-07-30T14:16:55;3.45;;;1.60;;
27839;SDS011;15207;42.182;24.308;2023-07-30T14:21:46;2.70;;;1.60;;
27839;SDS011;15207;42.182;24.308;2023-07-30T14:24:12;2.60;;;1.80;;
27839;SDS011;15207;42.182;24.308;2023-07-30T14:26:38;4.30;;;1.90;;
27839;SDS011;15207;42.182;24.308;2023-07-30T14:29:04;2.45;;;1.60;;
27839;SDS011;15207;42.182;24.308;2023-07-30T14:31:29;2.10;;;1.50;;
27839;SDS011;15207;42.182;24.308;2023-07-30T14:33:55;2.50;;;2.00;;
27839;SDS011;15207;42.182;24.308;2023-07-30T14:36:21;1.70;;;1.30;;
27839;SDS011;15207;42.182;24.308;2023-07-30T14:38:47;2.70;;;2.00;;
27839;SDS011;15207;42.182;24.308;2023-07-30T14:41:13;2.07;;;1.67;;
27839;SDS011;15207;42.182;24.308;2023-07-30T14:46:04;3.08;;;2.13;;
27839;SDS011;15207;42.182;24.308;2023-07-30T14:48:31;4.30;;;1.75;;
27839;SDS011;15207;42.182;24.308;2023-07-30T14:50:56;2.00;;;1.40;;
27839;SDS011;15207;42.182;24.308;2023-07-30T14:53:22;2.10;;;1.65;;
27839;SDS011;15207;42.182;24.308;2023-07-30T14:55:47;2.00;;;1.60;;
27839;SDS011;15207;42.182;24.308;2023-07-30T14:58:13;2.40;;;1.55;;
27839;SDS011;15207;42.182;24.308;2023-07-30T15:00:39;2.55;;;1.75;;
27839;SDS011;15207;42.182;24.308;2023-07-30T15:03:05;2.40;;;1.80;;
27839;SDS011;15207;42.182;24.308;2023-07-30T15:05:32;2.50;;;1.65;;
27839;SDS011;15207;42.182;24.308;2023-07-30T15:07:58;2.00;;;1.60;;
27839;SDS011;15207;42.182;24.308;2023-07-30T15:10:25;2.70;;;1.90;;
27839;SDS011;15207;42.182;24.308;2023-07-30T15:12:50;2.55;;;1.90;;
27839;SDS011;15207;42.182;24.308;2023-07-30T15:15:16;3.10;;;1.90;;
27839;SDS011;15207;42.182;24.308;2023-07-30T15:17:42;3.30;;;1.70;;
27839;SDS011;15207;42.182;24.308;2023-07-30T15:20:08;2.50;;;1.50;;
27839;SDS011;15207;42.182;24.308;2023-07-30T15:22:34;2.90;;;1.80;;
27839;SDS011;15207;42.182;24.308;2023-07-30T15:27:25;2.42;;;1.58;;
27839;SDS011;15207;42.182;24.308;2023-07-30T15:29:51;4.60;;;2.20;;
27839;SDS011;15207;42.182;24.308;2023-07-30T15:34:41;2.60;;;1.70;;
27839;SDS011;15207;42.182;24.308;2023-07-30T15:39:33;2.00;;;1.60;;
27839;SDS011;15207;42.182;24.308;2023-07-30T15:42:04;3.50;;;1.90;;
27839;SDS011;15207;42.182;24.308;2023-07-30T15:44:31;2.80;;;1.80;;
27839;SDS011;15207;42.182;24.308;2023-07-30T15:46:57;3.80;;;2.05;;
27839;SDS011;15207;42.182;24.308;2023-07-30T15:49:23;2.50;;;1.70;;
27839;SDS011;15207;42.182;24.308;2023-07-30T15:51:49;2.75;;;1.90;;
27839;SDS011;15207;42.182;24.308;2023-07-30T15:56:42;3.00;;;1.90;;
27839;SDS011;15207;42.182;24.308;2023-07-30T15:59:08;2.20;;;1.80;;
27839;SDS011;15207;42.182;24.308;2023-07-30T16:01:34;2.35;;;1.70;;
27839;SDS011;15207;42.182;24.308;2023-07-30T16:04:00;3.30;;;2.00;;
27839;SDS011;15207;42.182;24.308;2023-07-30T16:06:25;2.30;;;1.75;;
27839;SDS011;15207;42.182;24.308;2023-07-30T16:08:51;2.80;;;1.70;;
27839;SDS011;15207;42.182;24.308;2023-07-30T16:11:17;2.40;;;1.80;;
27839;SDS011;15207;42.182;24.308;2023-07-30T16:13:43;2.00;;;1.70;;
27839;SDS011;15207;42.182;24.308;2023-07-30T16:16:10;3.65;;;1.85;;
27839;SDS011;15207;42.182;24.308;2023-07-30T16:18:36;2.80;;;2.10;;
27839;SDS011;15207;42.182;24.308;2023-07-30T16:23:28;3.20;;;1.90;;
27839;SDS011;15207;42.182;24.308;2023-07-30T16:25:54;2.40;;;2.00;;
27839;SDS011;15207;42.182;24.308;2023-07-30T16:28:20;2.70;;;1.70;;
27839;SDS011;15207;42.182;24.308;2023-07-30T16:30:47;1.93;;;1.60;;
27839;SDS011;15207;42.182;24.308;2023-07-30T16:33:14;3.55;;;1.95;;
27839;SDS011;15207;42.182;24.308;2023-07-30T16:35:40;4.60;;;2.30;;
27839;SDS011;15207;42.182;24.308;2023-07-30T16:38:06;4.70;;;2.40;;
27839;SDS011;15207;42.182;24.308;2023-07-30T16:40:32;2.83;;;2.25;;
27839;SDS011;15207;42.182;24.308;2023-07-30T16:42:57;3.40;;;1.70;;
27839;SDS011;15207;42.182;24.308;2023-07-30T16:45:23;2.60;;;2.00;;
27839;SDS011;15207;42.182;24.308;2023-07-30T16:50:14;4.10;;;1.50;;
27839;SDS011;15207;42.182;24.308;2023-07-30T16:52:40;2.05;;;1.70;;
27839;SDS011;15207;42.182;24.308;2023-07-30T16:55:06;2.95;;;2.00;;
27839;SDS011;15207;42.182;24.308;2023-07-30T16:57:33;3.10;;;1.80;;
27839;SDS011;15207;42.182;24.308;2023-07-30T16:59:59;3.00;;;1.90;;
27839;SDS011;15207;42.182;24.308;2023-07-30T17:02:25;5.10;;;2.30;;
27839;SDS011;15207;42.182;24.308;2023-07-30T17:04:51;2.60;;;2.00;;
27839;SDS011;15207;42.182;24.308;2023-07-30T17:07:16;4.20;;;2.00;;
27839;SDS011;15207;42.182;24.308;2023-07-30T17:09:42;2.85;;;1.90;;
27839;SDS011;15207;42.182;24.308;2023-07-30T17:12:08;4.00;;;1.85;;
27839;SDS011;15207;42.182;24.308;2023-07-30T17:14:34;3.60;;;1.85;;
27839;SDS011;15207;42.182;24.308;2023-07-30T17:19:29;2.60;;;1.70;;